Time;durP1;ratioP1;P1;durP2;ratioP2;P2;SDS_P1;SDS_P2;PMS_P1;PMS_P2;Temp;Humidity;BMP_temperature;BMP_pressure;BME280_temperature;BME280_humidity;BME280_pressure;Samples;Min_cycle;Max_cycle;Signal;HPM_P1;HPM_P2
2023/10/05 00:02:10;;;;;;;6.28;1.98;;;14.90;99.90;;;;;;5069989;28;20396;-80
2023/10/05 00:04:40;;;;;;;;;;;14.90;99.90;;;;;;5070718;28;20051;-81
2023/10/05 00:07:17;;;;;;;3.92;2.03;;;14.90;99.90;;;;;;5070008;28;19905;-79
2023/10/05 00:09:43;;;;;;;6.18;2.17;;;14.90;99.90;;;;;;5069951;28;20448;-81
2023/10/05 00:12:18;;;;;;;5.57;1.75;;;14.80;99.90;;;;;;5069228;28;20083;-80
2023/10/05 00:14:48;;;;;;;6.43;2.40;;;14.90;99.90;;;;;;5070509;28;20043;-80
2023/10/05 00:17:18;;;;;;;5.88;2.00;;;14.80;99.90;;;;;;5051555;28;20133;-79
2023/10/05 00:19:43;;;;;;;6.18;2.30;;;14.80;99.90;;;;;;5070208;28;20024;-79
2023/10/05 00:22:09;;;;;;;8.38;2.45;;;14.80;99.90;;;;;;5069635;28;20025;-78
2023/10/05 00:24:36;;;;;;;6.32;2.35;;;14.70;99.90;;;;;;5070537;28;20517;-79
2023/10/05 00:27:09;;;;;;;4.32;2.10;;;14.70;99.90;;;;;;5069967;28;20450;-79
2023/10/05 00:29:41;;;;;;;8.52;2.40;;;14.70;99.90;;;;;;5070554;28;20050;-80
2023/10/05 00:32:34;;;;;;;8.73;2.60;;;14.60;99.90;;;;;;5070239;28;20055;-80
2023/10/05 00:35:16;;;;;;;4.07;1.90;;;14.60;99.90;;;;;;5052674;28;20454;-79
2023/10/05 00:37:46;;;;;;;6.30;2.22;;;14.60;99.90;;;;;;5070587;28;20094;-78
2023/10/05 00:40:25;;;;;;;4.13;2.38;;;14.60;99.90;;;;;;5069728;28;20033;-79
2023/10/05 00:42:51;;;;;;;6.07;2.40;;;14.60;99.90;;;;;;5070231;28;20036;-79
2023/10/05 00:45:24;;;;;;;9.13;2.45;;;14.60;99.90;;;;;;5069569;28;20100;-78
2023/10/05 00:47:50;;;;;;;3.58;1.85;;;14.60;99.90;;;;;;5052254;28;20091;-79
2023/10/05 00:50:17;;;;;;;7.15;1.88;;;14.50;99.90;;;;;;5069487;28;20434;-79
2023/10/05 00:52:44;;;;;;;4.78;1.95;;;14.50;99.90;;;;;;5070440;28;20314;-79
2023/10/05 00:55:16;;;;;;;8.85;2.13;;;14.50;99.90;;;;;;5070000;28;20032;-78
2023/10/05 00:57:42;;;;;;;4.93;1.63;;;14.40;99.90;;;;;;5070021;28;20040;-77
2023/10/05 01:02:38;;;;;;;7.70;1.70;;;14.50;99.90;;;;;;5070051;28;20126;-78
2023/10/05 01:05:25;;;;;;;3.35;1.90;;;14.40;99.90;;;;;;5072077;28;20024;-78
2023/10/05 01:07:56;;;;;;;6.00;1.70;;;14.50;99.90;;;;;;5078220;28;20025;-78
2023/10/05 01:10:40;;;;;;;5.95;1.90;;;14.40;99.90;;;;;;5056493;28;20455;-79
2023/10/05 01:13:29;;;;;;;3.80;1.60;;;14.40;99.90;;;;;;5074710;28;20024;-81
2023/10/05 01:15:55;;;;;;;4.20;1.67;;;14.40;99.90;;;;;;5076666;28;20029;-80
2023/10/05 01:18:29;;;;;;;3.70;1.73;;;14.40;99.90;;;;;;5076269;28;20025;-80
2023/10/05 01:20:57;;;;;;;4.30;1.55;;;14.40;99.90;;;;;;5056645;28;20159;-80
2023/10/05 01:23:37;;;;;;;3.50;1.50;;;14.40;99.90;;;;;;5076313;28;20025;-79
2023/10/05 01:26:04;;;;;;;3.13;1.00;;;14.40;99.90;;;;;;5074027;28;20467;-80
2023/10/05 01:28:30;;;;;;;2.55;1.63;;;14.40;99.90;;;;;;5073299;28;20075;-79
2023/10/05 01:30:56;;;;;;;1.92;1.30;;;14.40;99.90;;;;;;5073860;28;20028;-80
2023/10/05 01:33:21;;;;;;;2.90;1.23;;;14.40;99.90;;;;;;5054614;28;20355;-78
2023/10/05 01:35:47;;;;;;;5.20;1.67;;;14.40;99.90;;;;;;5056150;28;20498;-78
2023/10/05 01:38:13;;;;;;;2.97;1.20;;;14.40;99.90;;;;;;5073696;28;20032;-79
2023/10/05 01:40:38;;;;;;;2.00;1.20;;;14.40;99.90;;;;;;5073649;28;20145;-80
2023/10/05 01:43:05;;;;;;;1.13;0.90;;;14.40;99.90;;;;;;5073435;28;20050;-80
2023/10/05 01:45:33;;;;;;;2.63;1.25;;;14.40;99.90;;;;;;5054905;28;20028;-80
2023/10/05 01:48:12;;;;;;;1.52;1.00;;;14.40;99.90;;;;;;5073370;28;20328;-80
2023/10/05 01:50:39;;;;;;;2.95;1.10;;;14.40;99.90;;;;;;5072826;28;20056;-79
2023/10/05 01:53:11;;;;;;;1.90;1.20;;;14.40;99.90;;;;;;5073394;28;20090;-80
2023/10/05 01:55:39;;;;;;;2.08;1.20;;;14.40;99.90;;;;;;5054864;28;20033;-80
2023/10/05 01:58:05;;;;;;;1.77;1.15;;;14.40;99.90;;;;;;5073364;28;20024;-79
2023/10/05 02:00:37;;;;;;;2.28;1.23;;;14.40;99.90;;;;;;5072701;28;20033;-79
2023/10/05 02:03:09;;;;;;;2.00;1.25;;;14.40;99.90;;;;;;5073370;28;20035;-80
2023/10/05 02:05:36;;;;;;;1.73;0.98;;;14.30;99.90;;;;;;5072150;28;20827;-81
2023/10/05 02:08:03;;;;;;;2.35;1.30;;;14.30;99.90;;;;;;5073002;28;20028;-79
2023/10/05 02:10:32;;;;;;;1.20;1.02;;;14.30;99.90;;;;;;5072913;28;20081;-78
2023/10/05 02:13:01;;;;;;;1.90;1.35;;;14.30;99.90;;;;;;5076408;28;20446;-79
2023/10/05 02:15:29;;;;;;;3.10;1.08;;;14.30;99.90;;;;;;5056083;28;20047;-79
2023/10/05 02:17:59;;;;;;;3.25;1.20;;;14.30;99.90;;;;;;5076099;28;20520;-78
2023/10/05 02:20:38;;;;;;;1.75;1.17;;;14.30;99.90;;;;;;5072852;28;20119;-79
2023/10/05 02:25:54;;;;;;;2.42;1.50;;;14.30;99.90;;;;;;5073561;28;20032;-77
2023/10/05 02:28:25;;;;;;;2.85;1.52;;;14.30;99.90;;;;;;5072224;28;20032;-78
2023/10/05 02:30:55;;;;;;;3.05;1.55;;;14.30;99.90;;;;;;5072613;28;20028;-78
2023/10/05 02:33:26;;;;;;;5.55;2.05;;;14.30;99.90;;;;;;5071842;28;20043;-77
2023/10/05 02:35:56;;;;;;;3.72;1.50;;;14.30;99.90;;;;;;5072532;28;20036;-79
2023/10/05 02:38:23;;;;;;;3.10;1.67;;;14.30;99.90;;;;;;5071891;28;20100;-77
2023/10/05 02:40:54;;;;;;;2.97;1.33;;;14.20;99.90;;;;;;5054821;28;20063;-78
2023/10/05 02:43:29;;;;;;;1.92;1.23;;;14.30;99.90;;;;;;5056924;28;20050;-78
2023/10/05 02:46:08;;;;;;;3.83;1.58;;;14.30;99.90;;;;;;5074325;28;20028;-77
2023/10/05 02:48:35;;;;;;;3.55;1.23;;;14.20;99.90;;;;;;5071747;28;20067;-78
2023/10/05 02:51:05;;;;;;;2.80;1.30;;;14.20;99.90;;;;;;5072153;28;20522;-79
2023/10/05 02:56:22;;;;;;;3.08;1.52;;;14.20;99.90;;;;;;5071816;28;20394;-79
2023/10/05 02:58:53;;;;;;;1.75;1.20;;;14.20;99.90;;;;;;5072229;28;20115;-78
2023/10/05 03:01:21;;;;;;;3.42;1.20;;;14.20;99.90;;;;;;5071564;28;20021;-78
2023/10/05 03:03:47;;;;;;;3.50;1.33;;;14.10;99.90;;;;;;5071870;28;20032;-79
2023/10/05 03:06:15;;;;;;;2.22;1.13;;;14.10;99.90;;;;;;5071948;28;20050;-78
2023/10/05 03:08:42;;;;;;;2.70;1.30;;;14.10;99.90;;;;;;5071515;28;20033;-78
2023/10/05 03:11:08;;;;;;;1.90;1.08;;;14.10;99.90;;;;;;5071151;28;20033;-78
2023/10/05 03:13:38;;;;;;;3.58;1.40;;;14.10;99.90;;;;;;5071375;28;20390;-78
2023/10/05 03:16:06;;;;;;;4.07;1.30;;;14.10;99.90;;;;;;5072183;28;20490;-78
2023/10/05 03:18:37;;;;;;;6.47;1.20;;;14.10;99.90;;;;;;5073779;28;20032;-79
2023/10/05 03:21:12;;;;;;;4.75;1.50;;;14.10;99.90;;;;;;5072648;28;20028;-78
2023/10/05 03:23:41;;;;;;;5.75;1.60;;;14.10;99.90;;;;;;5074021;28;20044;-78
2023/10/05 03:26:13;;;;;;;5.25;1.77;;;14.10;99.90;;;;;;5074447;28;20023;-78
2023/10/05 03:28:41;;;;;;;4.30;2.10;;;14.10;99.90;;;;;;5070125;28;20114;-79
2023/10/05 03:31:36;;;;;;;8.75;2.03;;;14.00;99.90;;;;;;5071268;28;20311;-78
2023/10/05 03:34:05;;;;;;;5.15;2.10;;;14.10;99.90;;;;;;5071473;28;20433;-78
2023/10/05 03:36:33;;;;;;;5.38;1.73;;;14.00;99.90;;;;;;5070652;28;20028;-78
2023/10/05 03:39:03;;;;;;;4.00;1.67;;;14.00;99.90;;;;;;5071257;28;20111;-79
2023/10/05 03:41:29;;;;;;;5.30;1.63;;;14.00;99.90;;;;;;5070736;28;20054;-78
2023/10/05 03:43:55;;;;;;;3.80;1.83;;;13.90;99.90;;;;;;5071433;28;20111;-78
2023/10/05 03:46:27;;;;;;;4.97;1.65;;;13.90;99.90;;;;;;5070804;28;20032;-79
2023/10/05 03:49:00;;;;;;;5.75;1.88;;;13.90;99.90;;;;;;5070853;28;20094;-78
2023/10/05 03:51:26;;;;;;;3.47;1.40;;;13.90;99.90;;;;;;5070708;28;20048;-77
2023/10/05 03:53:52;;;;;;;4.85;1.58;;;13.90;99.90;;;;;;5070962;28;20035;-78
2023/10/05 03:56:23;;;;;;;7.85;1.80;;;13.90;99.90;;;;;;5070793;28;20510;-78
2023/10/05 03:58:52;;;;;;;3.00;1.25;;;13.90;99.90;;;;;;5071029;28;20024;-78
2023/10/05 04:01:19;;;;;;;5.40;1.80;;;13.90;99.90;;;;;;5070853;28;20111;-78
2023/10/05 04:03:46;;;;;;;6.90;1.95;;;13.80;99.90;;;;;;5070208;28;20034;-78
2023/10/05 04:06:26;;;;;;;4.55;1.70;;;13.80;99.90;;;;;;5070445;28;20051;-78
2023/10/05 04:08:59;;;;;;;4.28;1.67;;;13.80;99.90;;;;;;5070905;28;20044;-79
2023/10/05 04:11:28;;;;;;;5.30;1.70;;;13.70;99.90;;;;;;5070382;28;20024;-79
2023/10/05 04:13:55;;;;;;;4.07;1.67;;;13.70;99.90;;;;;;5070449;28;20566;-78
2023/10/05 04:16:28;;;;;;;3.45;1.70;;;13.70;99.90;;;;;;5070306;28;20048;-78
2023/10/05 04:18:54;;;;;;;;;;;13.70;99.90;;;;;;5071102;28;20028;-78
2023/10/05 04:21:22;;;;;;;6.07;1.60;;;13.70;99.90;;;;;;5070567;28;19905;-78
2023/10/05 04:23:52;;;;;;;4.88;1.60;;;13.60;99.90;;;;;;5070310;28;20494;-79
2023/10/05 04:26:22;;;;;;;3.78;1.58;;;13.70;99.90;;;;;;5070784;28;20028;-82
2023/10/05 04:28:52;;;;;;;4.90;1.70;;;13.60;99.90;;;;;;5070990;28;20024;-83
2023/10/05 04:31:27;;;;;;;7.80;2.30;;;13.60;99.90;;;;;;5071427;28;20086;-80
2023/10/05 04:33:56;;;;;;;5.18;2.05;;;13.60;99.90;;;;;;5070618;28;20029;-78
2023/10/05 04:36:23;;;;;;;5.63;2.22;;;13.60;99.90;;;;;;5070042;28;20051;-80
2023/10/05 04:38:54;;;;;;;7.80;2.65;;;13.70;99.90;;;;;;5070429;28;20028;-83
2023/10/05 04:41:31;;;;;;;9.90;2.30;;;13.60;99.90;;;;;;5070346;28;20100;-80
2023/10/05 04:44:06;;;;;;;4.57;2.15;;;13.60;99.90;;;;;;5070473;28;20040;-78
2023/10/05 04:46:32;;;;;;;8.75;1.85;;;13.60;99.90;;;;;;5069310;28;20121;-78
2023/10/05 04:49:31;;;;;;;8.32;2.00;;;13.60;99.90;;;;;;5069938;28;20320;-77
2023/10/05 04:51:51;;;;;;;7.22;1.70;;;13.50;99.90;;;;;;5065547;28;20040;-78
2023/10/05 04:54:25;;;;;;;8.05;2.13;;;13.50;99.90;;;;;;5070162;28;20119;-78
2023/10/05 04:57:03;;;;;;;4.18;1.75;;;13.50;99.90;;;;;;5069981;28;20028;-77
2023/10/05 04:59:48;;;;;;;8.80;2.00;;;13.50;99.90;;;;;;5051434;28;20020;-78
2023/10/05 05:02:35;;;;;;;7.75;1.92;;;13.50;99.90;;;;;;5052053;28;20439;-78
2023/10/05 05:05:32;;;;;;;3.28;1.40;;;13.50;99.90;;;;;;5070158;28;20355;-77
2023/10/05 05:07:52;;;;;;;3.63;1.52;;;13.60;99.90;;;;;;5069564;28;20090;-78
2023/10/05 05:10:20;;;;;;;7.47;1.88;;;13.50;99.90;;;;;;5070068;28;20132;-78
2023/10/05 05:12:47;;;;;;;5.35;1.70;;;13.50;99.90;;;;;;5069209;28;20128;-79
2023/10/05 05:15:14;;;;;;;4.05;1.63;;;13.50;99.90;;;;;;5070295;28;20116;-78
2023/10/05 05:17:40;;;;;;;5.72;1.52;;;13.50;99.90;;;;;;5069312;28;20052;-79
2023/10/05 05:20:11;;;;;;;3.83;1.20;;;13.50;99.90;;;;;;5069524;28;20099;-79
2023/10/05 05:22:38;;;;;;;4.00;1.50;;;13.50;99.90;;;;;;5068947;28;20390;-78
2023/10/05 05:25:06;;;;;;;6.18;1.80;;;13.60;99.90;;;;;;5069581;28;20086;-78
2023/10/05 05:27:33;;;;;;;6.78;1.73;;;13.60;99.90;;;;;;5069610;28;20024;-78
2023/10/05 05:29:59;;;;;;;4.68;1.85;;;13.60;99.90;;;;;;5069775;28;20099;-78
2023/10/05 05:32:25;;;;;;;5.45;1.60;;;13.60;99.90;;;;;;5069806;28;20037;-78
2023/10/05 05:34:51;;;;;;;5.75;1.90;;;13.50;99.90;;;;;;5069165;28;20025;-78
2023/10/05 05:37:39;;;;;;;7.43;2.08;;;13.60;99.90;;;;;;5070302;28;20118;-78
2023/10/05 05:40:12;;;;;;;5.70;1.42;;;13.50;99.90;;;;;;5068664;28;20479;-78
2023/10/05 05:42:44;;;;;;;4.28;1.20;;;13.50;99.90;;;;;;5068991;28;20036;-77
2023/10/05 05:45:19;;;;;;;4.82;1.67;;;13.50;99.90;;;;;;5070162;28;20090;-79
2023/10/05 05:47:48;;;;;;;6.70;1.60;;;13.50;99.90;;;;;;5069318;28;20029;-79
2023/10/05 05:50:18;;;;;;;5.00;1.50;;;13.50;99.90;;;;;;5069553;28;20057;-77
2023/10/05 05:52:47;;;;;;;3.90;1.60;;;13.50;99.90;;;;;;5071366;28;20111;-77
2023/10/05 05:55:20;;;;;;;2.75;1.45;;;13.50;99.90;;;;;;5073849;28;20025;-77
2023/10/05 05:57:46;;;;;;;7.15;1.63;;;13.50;99.90;;;;;;5072831;28;20029;-79
2023/10/05 06:00:13;;;;;;;6.43;1.75;;;13.50;99.90;;;;;;5074398;28;20036;-78
2023/10/05 06:02:43;;;;;;;4.47;1.52;;;13.50;99.90;;;;;;5073914;28;20021;-78
2023/10/05 06:05:10;;;;;;;4.15;1.50;;;13.40;99.90;;;;;;5072388;28;20467;-78
2023/10/05 06:07:40;;;;;;;3.92;1.85;;;13.50;99.90;;;;;;5072764;28;20036;-79
2023/10/05 06:10:17;;;;;;;6.60;1.55;;;13.50;99.90;;;;;;5055605;28;20063;-78
2023/10/05 06:12:45;;;;;;;7.82;1.70;;;13.50;99.90;;;;;;5072428;28;20106;-79
2023/10/05 06:15:13;;;;;;;8.15;1.70;;;13.50;99.90;;;;;;5073535;28;20056;-79
2023/10/05 06:17:40;;;;;;;9.32;2.22;;;13.50;99.90;;;;;;5055052;28;20463;-80
2023/10/05 06:20:15;;;;;;;5.07;1.98;;;13.50;99.90;;;;;;5072870;28;20025;-79
2023/10/05 06:22:44;;;;;;;4.05;1.77;;;13.50;99.90;;;;;;5056025;28;20024;-79
2023/10/05 06:25:15;;;;;;;5.78;1.95;;;13.40;99.90;;;;;;5072428;28;20099;-78
2023/10/05 06:27:43;;;;;;;5.95;1.88;;;13.40;99.90;;;;;;5072458;28;20447;-78
2023/10/05 06:30:13;;;;;;;6.20;2.03;;;13.40;99.90;;;;;;5071891;28;20037;-77
2023/10/05 06:32:39;;;;;;;6.32;1.77;;;13.40;99.90;;;;;;5054539;28;20025;-78
2023/10/05 06:35:09;;;;;;;5.90;1.77;;;13.40;99.90;;;;;;5071663;28;20171;-78
2023/10/05 06:37:39;;;;;;;4.45;1.60;;;13.50;99.90;;;;;;5071721;28;20021;-77
2023/10/05 06:40:21;;;;;;;5.18;1.65;;;13.50;99.90;;;;;;5053912;28;20047;-78
2023/10/05 06:42:51;;;;;;;7.38;1.88;;;13.50;99.90;;;;;;5071876;28;20028;-78
2023/10/05 06:45:19;;;;;;;6.95;2.53;;;13.60;99.90;;;;;;5071681;28;20500;-76
2023/10/05 06:47:45;;;;;;;6.28;2.00;;;13.60;99.90;;;;;;5072128;28;20127;-78
2023/10/05 06:50:11;;;;;;;4.63;1.80;;;13.60;99.90;;;;;;5072510;28;20049;-78
2023/10/05 06:52:46;;;;;;;5.22;1.92;;;13.60;99.90;;;;;;5072149;28;20124;-78
2023/10/05 06:55:14;;;;;;;7.13;2.05;;;13.60;99.90;;;;;;5071601;28;20064;-78
2023/10/05 06:57:43;;;;;;;5.32;1.48;;;13.60;99.90;;;;;;5072038;28;20025;-78
2023/10/05 07:00:20;;;;;;;5.97;2.00;;;13.60;99.90;;;;;;5072107;28;20040;-78
2023/10/05 07:02:47;;;;;;;5.80;1.98;;;13.70;99.90;;;;;;5053880;28;20036;-79
2023/10/05 07:05:13;;;;;;;8.40;1.85;;;13.70;99.90;;;;;;5072298;28;20101;-78
2023/10/05 07:07:43;;;;;;;4.13;1.70;;;13.70;99.90;;;;;;5053164;28;20024;-78
2023/10/05 07:10:17;;;;;;;4.10;1.38;;;13.70;99.90;;;;;;5053686;28;20383;-80
2023/10/05 07:12:47;;;;;;;4.82;1.73;;;13.70;99.90;;;;;;5053732;28;20039;-79
2023/10/05 07:15:14;;;;;;;5.60;1.60;;;13.70;99.90;;;;;;5071740;28;20107;-79
2023/10/05 07:17:40;;;;;;;3.80;1.63;;;13.80;99.90;;;;;;5071542;28;20134;-79
2023/10/05 07:20:11;;;;;;;5.18;1.50;;;13.80;99.90;;;;;;5053870;28;20116;-79
2023/10/05 07:22:41;;;;;;;4.65;1.48;;;13.80;99.90;;;;;;5071106;28;20033;-79
2023/10/05 07:25:09;;;;;;;7.55;2.20;;;13.80;99.90;;;;;;5071025;28;20081;-79
2023/10/05 07:27:35;;;;;;;4.53;1.67;;;13.80;99.90;;;;;;5070814;28;20032;-80
2023/10/05 07:30:05;;;;;;;6.28;2.35;;;13.90;99.90;;;;;;5072471;28;20024;-79
2023/10/05 07:32:32;;;;;;;6.60;2.00;;;13.90;99.90;;;;;;5070957;28;20179;-79
2023/10/05 07:34:57;;;;;;;7.88;2.05;;;13.90;99.90;;;;;;5070353;28;20391;-79
2023/10/05 07:37:23;;;;;;;8.63;2.35;;;13.90;99.90;;;;;;5070984;28;20035;-78
2023/10/05 07:39:52;;;;;;;7.28;2.03;;;13.90;99.90;;;;;;5069933;28;20490;-81
2023/10/05 07:42:18;;;;;;;7.60;1.80;;;13.90;99.90;;;;;;5071799;28;20028;-85
2023/10/05 07:44:45;;;;;;;7.32;1.90;;;13.80;99.90;;;;;;5071287;28;20104;-81
2023/10/05 07:47:11;;;;;;;5.07;2.05;;;13.80;99.90;;;;;;5071231;28;20327;-78
2023/10/05 07:49:38;;;;;;;5.65;1.63;;;13.70;99.90;;;;;;5070392;28;20053;-78
2023/10/05 07:52:09;;;;;;;8.80;1.80;;;13.80;99.90;;;;;;5071496;28;20393;-79
2023/10/05 07:54:37;;;;;;;4.65;1.95;;;13.80;99.90;;;;;;5071009;28;20426;-79
2023/10/05 07:57:07;;;;;;;6.53;1.60;;;13.70;99.90;;;;;;5070719;28;20027;-79
2023/10/05 07:59:33;;;;;;;6.30;1.58;;;13.70;99.90;;;;;;5070877;28;20324;-78
2023/10/05 08:01:58;;;;;;;6.28;1.73;;;13.70;99.90;;;;;;5069756;28;20040;-78
2023/10/05 08:04:24;;;;;;;5.57;1.40;;;13.80;99.90;;;;;;5070431;28;20116;-78
2023/10/05 08:06:50;;;;;;;3.88;1.40;;;13.80;99.90;;;;;;5069890;28;20028;-77
2023/10/05 08:09:20;;;;;;;4.55;2.08;;;13.80;99.90;;;;;;5070712;28;20047;-77
2023/10/05 08:11:50;;;;;;;3.00;1.42;;;13.80;99.90;;;;;;5051674;28;20024;-78
2023/10/05 08:14:17;;;;;;;4.43;1.58;;;13.80;99.90;;;;;;5070104;28;20112;-78
2023/10/05 08:16:45;;;;;;;4.43;1.80;;;13.90;99.90;;;;;;5069879;28;20132;-78
2023/10/05 08:19:11;;;;;;;5.45;1.40;;;13.90;99.90;;;;;;5070219;28;20118;-78
2023/10/05 08:21:37;;;;;;;3.83;1.10;;;13.90;99.90;;;;;;5070393;28;20056;-78
2023/10/05 08:24:04;;;;;;;3.60;1.50;;;14.00;99.90;;;;;;5070261;28;20087;-78
2023/10/05 08:26:30;;;;;;;2.83;1.40;;;14.00;99.90;;;;;;5070464;28;20024;-79
2023/10/05 08:28:56;;;;;;;4.65;1.63;;;14.00;99.90;;;;;;5069524;28;20031;-79
2023/10/05 08:31:23;;;;;;;7.15;1.67;;;14.10;99.90;;;;;;5070699;28;20035;-79
2023/10/05 08:33:52;;;;;;;3.58;1.35;;;14.10;99.90;;;;;;5069687;28;20039;-79
2023/10/05 08:36:18;;;;;;;5.15;1.40;;;14.10;99.90;;;;;;5070586;28;20455;-80
2023/10/05 08:38:48;;;;;;;3.30;1.05;;;14.20;99.90;;;;;;5069684;28;20017;-78
2023/10/05 08:41:36;;;;;;;5.50;2.10;;;14.20;99.90;;;;;;5072049;28;20017;-87
2023/10/05 08:44:06;;;;;;;5.57;1.75;;;14.30;99.90;;;;;;5063285;28;20028;-84
2023/10/05 08:46:43;;;;;;;3.85;1.48;;;14.30;99.90;;;;;;5074039;28;20036;-84
2023/10/05 08:49:12;;;;;;;4.15;1.63;;;14.30;99.90;;;;;;5054498;28;20443;-82
2023/10/05 08:51:39;;;;;;;4.70;1.60;;;14.30;99.90;;;;;;5070622;28;20111;-80
2023/10/05 08:54:13;;;;;;;2.97;1.63;;;14.20;99.90;;;;;;5069339;28;20082;-78
2023/10/05 08:56:47;;;;;;;4.53;1.30;;;14.20;99.90;;;;;;5069937;28;20032;-78
2023/10/05 08:59:13;;;;;;;2.30;1.27;;;14.30;99.90;;;;;;5069411;28;20467;-78
2023/10/05 09:01:43;;;;;;;3.63;1.20;;;14.30;99.90;;;;;;5069875;28;20025;-78
2023/10/05 09:07:08;;;;;;;3.10;1.30;;;14.40;99.90;;;;;;5070475;28;20035;-78
2023/10/05 09:09:38;;;;;;;1.65;1.00;;;14.50;99.90;;;;;;5050544;28;20025;-78
2023/10/05 09:12:46;;;;;;;2.42;1.38;;;14.60;99.90;;;;;;5050453;28;20037;-78
2023/10/05 09:20:42;;;;;;;4.25;1.83;;;14.80;99.90;;;;;;5050740;28;20044;-80
2023/10/05 09:23:13;;;;;;;1.15;0.93;;;14.90;99.90;;;;;;5051209;28;20122;-78
2023/10/05 09:25:45;;;;;;;1.73;1.13;;;14.90;99.90;;;;;;5049881;28;20024;-79
2023/10/05 09:28:16;;;;;;;3.83;1.33;;;15.00;99.90;;;;;;5053040;28;20052;-79
2023/10/05 09:31:01;;;;;;;1.70;1.10;;;15.00;99.90;;;;;;5053489;28;20101;-80
2023/10/05 09:33:28;;;;;;;2.17;1.20;;;15.10;99.90;;;;;;5053507;28;20029;-79
2023/10/05 09:36:07;;;;;;;2.38;1.30;;;15.10;99.90;;;;;;5053708;28;20044;-79
2023/10/05 09:38:42;;;;;;;2.83;1.13;;;15.20;99.90;;;;;;5053554;28;20033;-78
2023/10/05 09:41:09;;;;;;;2.97;1.85;;;15.30;99.90;;;;;;5053602;28;20072;-78
2023/10/05 09:43:38;;;;;;;2.65;1.17;;;15.30;99.90;;;;;;5053597;28;20071;-78
2023/10/05 09:46:09;;;;;;;3.10;1.73;;;15.40;99.90;;;;;;5053124;28;20070;-79
2023/10/05 09:48:39;;;;;;;4.13;1.27;;;15.40;99.90;;;;;;5053659;28;20040;-79
2023/10/05 09:51:10;;;;;;;4.13;1.30;;;15.40;99.90;;;;;;5053016;28;20079;-79
2023/10/05 09:53:39;;;;;;;2.50;1.30;;;15.40;99.90;;;;;;5052559;28;20075;-79
2023/10/05 09:56:06;;;;;;;4.75;1.70;;;15.50;99.90;;;;;;5052752;28;20340;-79
2023/10/05 09:58:34;;;;;;;1.92;1.30;;;15.50;99.90;;;;;;5053380;28;20045;-80
2023/10/05 10:01:10;;;;;;;3.67;1.48;;;15.50;99.90;;;;;;5052345;28;20031;-79
2023/10/05 10:03:37;;;;;;;3.50;1.70;;;15.50;99.90;;;;;;5052931;28;20029;-79
2023/10/05 10:06:09;;;;;;;6.72;2.03;;;15.50;99.90;;;;;;5051801;28;20087;-80
2023/10/05 10:08:50;;;;;;;4.88;2.03;;;15.60;99.90;;;;;;5052257;28;20040;-79
2023/10/05 10:11:18;;;;;;;4.57;2.15;;;15.50;99.90;;;;;;5053014;28;20079;-79
2023/10/05 10:14:18;;;;;;;5.65;1.80;;;15.50;99.90;;;;;;5052538;28;20037;-80
2023/10/05 10:16:47;;;;;;;5.68;2.05;;;15.50;99.90;;;;;;5052859;28;20037;-81
2023/10/05 10:19:19;;;;;;;3.75;2.08;;;15.50;99.90;;;;;;5051332;28;20037;-79
2023/10/05 10:21:53;;;;;;;6.70;2.13;;;15.50;99.90;;;;;;5052504;28;20025;-79
2023/10/05 10:24:19;;;;;;;5.03;2.03;;;15.40;99.90;;;;;;5052548;28;20033;-78
2023/10/05 10:26:53;;;;;;;6.93;1.95;;;15.50;99.90;;;;;;5052538;28;20108;-80
2023/10/05 10:29:22;;;;;;;5.60;2.08;;;15.50;99.90;;;;;;5062559;28;20076;-78
2023/10/05 10:32:19;;;;;;;5.45;1.90;;;15.50;99.90;;;;;;5072131;28;20440;-76
2023/10/05 10:34:57;;;;;;;4.43;1.55;;;15.50;99.90;;;;;;5054956;28;20028;-77
2023/10/05 10:37:36;;;;;;;5.22;1.67;;;15.40;99.90;;;;;;5071290;28;20025;-76
2023/10/05 10:45:40;;;;;;;3.08;1.50;;;15.40;99.90;;;;;;5071912;28;20021;-78
2023/10/05 10:48:09;;;;;;;5.43;1.30;;;15.40;99.90;;;;;;5071533;28;20596;-78
2023/10/05 10:50:38;;;;;;;4.65;2.00;;;15.50;99.90;;;;;;5071822;28;20052;-78
2023/10/05 10:53:16;;;;;;;4.43;2.28;;;15.60;99.90;;;;;;5071553;28;20327;-79
2023/10/05 10:56:03;;;;;;;4.72;1.75;;;15.70;99.90;;;;;;5071716;28;20029;-79
2023/10/05 10:58:32;;;;;;;5.63;1.80;;;15.80;99.90;;;;;;5054431;28;20432;-77
2023/10/05 11:01:13;;;;;;;4.57;1.55;;;15.90;99.90;;;;;;5071245;28;20029;-78
2023/10/05 11:03:41;;;;;;;4.88;1.63;;;15.90;99.90;;;;;;5072108;28;20037;-77
2023/10/05 11:06:09;;;;;;;3.10;1.75;;;16.00;99.90;;;;;;5071331;28;20227;-79
2023/10/05 11:08:40;;;;;;;9.55;2.22;;;16.10;99.90;;;;;;5053764;28;20028;-78
2023/10/05 11:11:15;;;;;;;5.22;1.60;;;16.10;99.90;;;;;;5053976;28;20027;-78
2023/10/05 11:13:45;;;;;;;3.38;1.52;;;16.20;99.90;;;;;;5071646;28;20489;-79
2023/10/05 11:16:11;;;;;;;4.90;1.23;;;16.20;99.90;;;;;;5071280;28;20059;-79
2023/10/05 11:18:51;;;;;;;7.75;1.67;;;16.30;99.90;;;;;;5071702;28;20130;-79
2023/10/05 11:21:18;;;;;;;2.75;1.17;;;16.40;99.90;;;;;;5071771;28;20040;-79
2023/10/05 11:23:48;;;;;;;4.70;1.30;;;16.40;99.90;;;;;;5071591;28;20048;-79
2023/10/05 11:26:18;;;;;;;4.47;1.30;;;16.50;99.90;;;;;;5071588;28;20048;-79
2023/10/05 11:28:51;;;;;;;4.00;1.33;;;16.50;99.90;;;;;;5071576;28;20173;-80
2023/10/05 11:31:26;;;;;;;3.70;1.15;;;16.50;99.90;;;;;;5071609;28;20024;-79
2023/10/05 11:33:53;;;;;;;4.53;1.40;;;16.60;99.90;;;;;;5071165;28;20033;-78
2023/10/05 11:36:27;;;;;;;2.53;1.10;;;16.80;99.90;;;;;;5053066;28;20116;-80
2023/10/05 11:38:59;;;;;;;6.07;1.20;;;16.80;99.90;;;;;;5070905;28;20028;-80
2023/10/05 11:41:28;;;;;;;2.78;1.10;;;16.90;99.90;;;;;;5071274;28;20434;-80
2023/10/05 11:43:55;;;;;;;2.97;1.35;;;16.90;99.90;;;;;;5070776;28;20368;-80
2023/10/05 11:46:26;;;;;;;2.33;1.20;;;17.00;99.90;;;;;;5070944;28;20391;-78
2023/10/05 11:48:55;;;;;;;1.50;0.65;;;17.00;99.90;;;;;;5052224;28;20046;-80
2023/10/05 11:51:37;;;;;;;1.65;0.90;;;17.00;99.90;;;;;;5070869;28;20052;-79
2023/10/05 11:54:04;;;;;;;2.53;0.70;;;17.00;99.90;;;;;;5070416;28;20028;-80
2023/10/05 11:56:31;;;;;;;2.95;1.00;;;17.00;99.90;;;;;;5070955;28;20040;-79
2023/10/05 11:59:00;;;;;;;0.82;0.60;;;17.00;99.90;;;;;;5070312;28;20031;-78
2023/10/05 12:01:32;;;;;;;1.67;0.80;;;17.00;99.90;;;;;;5052430;28;20025;-78
2023/10/05 12:03:58;;;;;;;1.15;0.45;;;17.00;99.90;;;;;;5070088;28;20698;-80
2023/10/05 12:06:25;;;;;;;1.25;0.57;;;17.10;99.90;;;;;;5070516;28;20068;-80
2023/10/05 12:08:53;;;;;;;0.65;0.40;;;17.20;99.90;;;;;;5070592;28;20080;-81
2023/10/05 12:11:23;;;;;;;0.88;0.40;;;17.20;99.90;;;;;;5070801;28;20024;-77
2023/10/05 12:13:55;;;;;;;0.95;0.60;;;17.20;99.90;;;;;;5070714;28;20131;-78
2023/10/05 12:16:21;;;;;;;0.80;0.63;;;17.20;99.90;;;;;;5070264;28;20441;-78
2023/10/05 12:18:48;;;;;;;1.05;0.70;;;17.30;99.90;;;;;;5070766;28;20062;-77
2023/10/05 12:21:13;;;;;;;2.47;0.70;;;17.30;99.90;;;;;;5051985;28;20226;-77
2023/10/05 12:23:39;;;;;;;3.85;0.80;;;17.30;99.90;;;;;;5070817;28;20182;-77
2023/10/05 12:26:10;;;;;;;1.13;0.68;;;17.30;99.90;;;;;;5070063;28;20029;-78
2023/10/05 12:28:36;;;;;;;3.10;0.90;;;17.30;99.90;;;;;;5070506;28;20459;-79
2023/10/05 12:31:02;;;;;;;1.92;0.88;;;17.30;99.90;;;;;;5069997;28;20028;-79
2023/10/05 12:33:28;;;;;;;1.40;0.70;;;17.30;99.90;;;;;;5070114;28;20039;-76
2023/10/05 12:35:54;;;;;;;4.32;1.20;;;17.40;99.90;;;;;;5070305;28;20028;-78
2023/10/05 12:38:21;;;;;;;2.85;0.85;;;17.40;99.90;;;;;;5070426;28;20056;-77
2023/10/05 12:40:47;;;;;;;2.53;1.00;;;17.40;99.90;;;;;;5070348;28;20021;-78
2023/10/05 12:43:15;;;;;;;4.55;1.00;;;17.40;99.90;;;;;;5070075;28;20119;-79
2023/10/05 12:45:42;;;;;;;3.88;1.20;;;17.50;99.90;;;;;;5070145;28;20075;-79
2023/10/05 12:48:08;;;;;;;2.30;0.90;;;17.50;99.90;;;;;;5069654;28;20116;-79
2023/10/05 12:50:34;;;;;;;4.55;1.73;;;17.60;99.90;;;;;;5070001;28;20048;-79
2023/10/05 12:53:00;;;;;;;2.30;0.90;;;17.60;99.90;;;;;;5069557;28;20032;-78
2023/10/05 12:55:26;;;;;;;3.42;1.02;;;17.60;99.90;;;;;;5070226;28;20040;-79
2023/10/05 12:57:53;;;;;;;3.65;1.13;;;17.80;99.90;;;;;;5069906;28;20033;-78
2023/10/05 13:00:36;;;;;;;2.83;0.90;;;17.80;99.90;;;;;;5069670;28;20025;-78
2023/10/05 13:03:01;;;;;;;3.70;0.95;;;17.90;99.90;;;;;;5057006;28;20032;-79
2023/10/05 13:05:29;;;;;;;4.47;1.10;;;18.00;99.90;;;;;;5074167;28;20036;-79
2023/10/05 13:07:55;;;;;;;2.15;0.80;;;18.00;99.90;;;;;;5073825;28;20115;-80
2023/10/05 13:10:21;;;;;;;2.13;1.00;;;18.10;99.90;;;;;;5074077;28;20072;-80
2023/10/05 13:12:51;;;;;;;5.15;1.05;;;18.10;99.90;;;;;;5073792;28;20025;-80
2023/10/05 13:15:19;;;;;;;3.85;1.27;;;18.10;99.90;;;;;;5073061;28;20647;-78
2023/10/05 13:17:47;;;;;;;2.80;1.27;;;18.10;99.90;;;;;;5072396;28;20435;-78
2023/10/05 13:20:23;;;;;;;3.33;1.00;;;18.10;99.90;;;;;;5053481;28;20315;-78
2023/10/05 13:22:53;;;;;;;2.45;1.10;;;18.10;99.90;;;;;;5072999;28;20129;-76
2023/10/05 13:25:26;;;;;;;4.72;1.50;;;18.10;99.90;;;;;;5073158;28;20021;-78
2023/10/05 13:27:53;;;;;;;4.75;1.40;;;18.10;99.90;;;;;;5073521;28;20020;-77